Time;durP1;ratioP1;P1;durP2;ratioP2;P2;SDS_P1;SDS_P2;PMS_P1;PMS_P2;Temp;Humidity;BMP_temperature;BMP_pressure;BME280_temperature;BME280_humidity;BME280_pressure;Samples;Min_cycle;Max_cycle;Signal;HPM_P1;HPM_P2
2021/12/06 03:45:26;;;;;;;36.88;19.40;;;4.20;99.90;;;;;;5625564;24;20889;-82
2021/12/06 03:47:52;;;;;;;35.72;20.90;;;4.20;99.90;;;;;;4644137;30;20058;-82
2021/12/06 03:50:19;;;;;;;37.58;20.65;;;4.20;99.90;;;;;;4661076;30;20034;-82
2021/12/06 03:52:46;;;;;;;33.67;18.15;;;4.20;99.90;;;;;;4647034;30;20038;-83
2021/12/06 03:55:13;;;;;;;32.78;17.10;;;4.20;99.90;;;;;;4660910;30;20051;-84
2021/12/06 03:57:40;;;;;;;40.30;19.77;;;4.30;99.90;;;;;;4633427;30;20225;-84
2021/12/06 04:00:10;;;;;;;37.92;19.05;;;4.30;99.90;;;;;;4674730;30;20397;-84
2021/12/06 04:02:40;;;;;;;40.17;20.52;;;4.30;99.90;;;;;;4661238;30;20230;-83
2021/12/06 04:05:07;;;;;;;40.70;20.27;;;4.30;99.90;;;;;;4657799;30;20066;-83
2021/12/06 04:07:33;;;;;;;36.08;20.13;;;4.30;99.90;;;;;;4646894;30;20031;-83
2021/12/06 04:09:59;;;;;;;37.88;19.88;;;4.30;99.90;;;;;;4660697;30;20046;-83
2021/12/06 04:12:26;;;;;;;33.25;19.90;;;4.30;99.90;;;;;;4646737;30;20070;-84
2021/12/06 04:14:53;;;;;;;38.55;19.42;;;4.30;99.90;;;;;;4660740;30;20042;-84
2021/12/06 04:17:19;;;;;;;33.83;20.10;;;4.30;99.90;;;;;;4660569;30;20050;-83
2021/12/06 04:19:46;;;;;;;37.85;19.98;;;4.40;99.90;;;;;;4674511;30;20065;-84
2021/12/06 04:22:13;;;;;;;32.28;19.42;;;4.50;99.90;;;;;;4660446;30;20086;-83
2021/12/06 04:24:40;;;;;;;31.73;17.77;;;4.50;99.90;;;;;;4674463;30;20023;-84
2021/12/06 04:27:14;;;;;;;31.92;19.42;;;4.60;99.90;;;;;;4660514;30;20041;-84
2021/12/06 04:29:47;;;;;;;35.53;20.15;;;4.60;99.90;;;;;;4660597;30;20124;-83
2021/12/06 04:32:16;;;;;;;32.70;18.40;;;4.60;99.90;;;;;;4660511;30;20042;-82
2021/12/06 04:34:42;;;;;;;34.13;18.90;;;4.60;99.90;;;;;;4657380;30;20058;-82
2021/12/06 04:37:11;;;;;;;38.97;18.95;;;4.60;99.90;;;;;;4646541;30;20050;-84
2021/12/06 04:39:38;;;;;;;36.00;19.33;;;4.60;99.90;;;;;;4660119;30;20353;-84
2021/12/06 04:42:05;;;;;;;31.13;18.48;;;4.60;99.90;;;;;;4660127;30;20067;-83
2021/12/06 04:44:31;;;;;;;35.88;19.23;;;4.60;99.90;;;;;;4660371;30;20041;-84
2021/12/06 04:46:58;;;;;;;33.73;20.13;;;4.70;99.90;;;;;;4642609;30;20063;-84
2021/12/06 04:49:28;;;;;;;32.10;19.65;;;4.60;99.90;;;;;;4657185;30;20037;-83
2021/12/06 04:51:58;;;;;;;34.03;20.50;;;4.70;99.90;;;;;;4657227;30;20393;-83
2021/12/06 04:54:30;;;;;;;29.98;19.85;;;4.70;99.90;;;;;;4657062;30;20088;-83
2021/12/06 04:57:08;;;;;;;37.17;19.40;;;4.70;99.90;;;;;;4657118;30;20031;-83
2021/12/06 04:59:40;;;;;;;33.50;18.75;;;4.70;99.90;;;;;;4671171;30;20227;-83
2021/12/06 05:02:29;;;;;;;42.13;20.88;;;4.70;99.90;;;;;;4657117;30;20046;-83
2021/12/06 05:05:01;;;;;;;38.70;20.15;;;4.70;99.90;;;;;;4657283;30;20070;-84
2021/12/06 05:07:32;;;;;;;39.50;20.10;;;4.80;99.90;;;;;;4656706;30;20394;-83
2021/12/06 05:09:58;;;;;;;40.00;22.25;;;4.80;99.90;;;;;;4656953;30;20038;-83
2021/12/06 05:12:29;;;;;;;40.08;21.08;;;4.80;99.90;;;;;;4643013;30;20050;-84
2021/12/06 05:14:55;;;;;;;41.00;21.25;;;4.80;99.90;;;;;;4657006;30;20042;-84
2021/12/06 05:17:21;;;;;;;47.67;21.10;;;4.80;99.90;;;;;;4656909;30;20085;-84
2021/12/06 05:19:48;;;;;;;35.83;20.23;;;4.90;99.90;;;;;;4656879;30;20346;-84
2021/12/06 05:22:15;;;;;;;34.77;19.77;;;4.90;99.90;;;;;;4655380;30;20043;-83
2021/12/06 05:24:41;;;;;;;35.50;20.10;;;4.90;99.90;;;;;;4642906;30;20472;-84
2021/12/06 05:27:07;;;;;;;48.38;20.77;;;4.90;99.90;;;;;;4657011;30;20282;-83
2021/12/06 05:29:36;;;;;;;34.70;20.13;;;4.90;99.90;;;;;;4616286;30;20334;-84
2021/12/06 05:32:03;;;;;;;43.50;20.23;;;4.90;99.90;;;;;;4628975;30;20117;-84
2021/12/06 05:34:38;;;;;;;38.72;21.45;;;4.80;99.90;;;;;;4642873;30;20263;-84
2021/12/06 05:37:11;;;;;;;39.60;19.25;;;4.80;99.90;;;;;;4657304;30;20042;-84
2021/12/06 05:39:37;;;;;;;31.50;19.55;;;4.90;99.90;;;;;;4656852;30;20058;-83
2021/12/06 05:42:08;;;;;;;38.55;21.08;;;4.80;99.90;;;;;;4656619;30;20094;-84
2021/12/06 05:44:35;;;;;;;49.63;21.17;;;4.80;99.90;;;;;;4656970;30;20042;-84
2021/12/06 05:47:01;;;;;;;35.13;20.45;;;4.90;99.90;;;;;;4647453;30;20079;-84
2021/12/06 05:49:27;;;;;;;36.78;21.02;;;4.90;99.90;;;;;;4642575;30;20059;-84
2021/12/06 05:51:54;;;;;;;45.65;22.48;;;4.80;99.90;;;;;;4628826;30;20230;-84
2021/12/06 05:54:21;;;;;;;36.05;20.67;;;4.90;99.90;;;;;;4670915;30;20027;-84
2021/12/06 05:56:47;;;;;;;35.20;20.75;;;4.80;99.90;;;;;;4656582;30;20051;-84
2021/12/06 05:59:14;;;;;;;46.72;20.80;;;4.80;99.90;;;;;;4653792;30;20226;-84
2021/12/06 06:01:40;;;;;;;33.25;19.95;;;4.80;99.90;;;;;;4631992;30;20043;-84
2021/12/06 06:04:06;;;;;;;35.83;20.83;;;4.80;99.90;;;;;;4628670;30;20043;-84
2021/12/06 06:06:34;;;;;;;42.07;21.27;;;4.80;99.90;;;;;;4628770;30;20207;-84
2021/12/06 06:09:02;;;;;;;35.03;20.00;;;4.80;99.90;;;;;;4656639;30;20386;-84
2021/12/06 06:11:28;;;;;;;40.38;19.77;;;4.70;99.90;;;;;;4642565;30;20054;-84
2021/12/06 06:13:54;;;;;;;42.13;20.73;;;4.70;99.90;;;;;;4628953;30;20109;-83
2021/12/06 06:16:22;;;;;;;39.67;21.95;;;4.70;99.90;;;;;;4642511;30;20117;-83
2021/12/06 06:18:50;;;;;;;41.53;23.38;;;4.70;99.90;;;;;;4642400;30;20109;-83
2021/12/06 06:21:17;;;;;;;49.10;24.70;;;4.70;99.90;;;;;;4659640;30;20235;-83
2021/12/06 06:23:43;;;;;;;40.55;22.55;;;4.60;99.90;;;;;;4659823;30;20042;-84
2021/12/06 06:26:09;;;;;;;41.88;23.83;;;4.70;99.90;;;;;;4617707;30;20047;-83
2021/12/06 06:28:35;;;;;;;43.22;24.33;;;4.70;99.90;;;;;;4617560;30;20208;-83
2021/12/06 06:31:01;;;;;;;49.28;24.92;;;4.60;99.90;;;;;;4659306;30;20038;-83
2021/12/06 06:33:27;;;;;;;46.33;23.77;;;4.60;99.90;;;;;;4645349;30;20039;-83
2021/12/06 06:35:53;;;;;;;45.25;25.00;;;4.60;99.90;;;;;;4631331;30;20039;-83
2021/12/06 06:38:20;;;;;;;39.78;22.50;;;4.60;99.90;;;;;;4645150;30;20042;-83
2021/12/06 06:40:46;;;;;;;41.72;23.95;;;4.60;99.90;;;;;;4659130;30;20247;-83
2021/12/06 06:43:12;;;;;;;47.47;25.23;;;4.70;99.90;;;;;;4659217;30;20037;-83
2021/12/06 06:45:38;;;;;;;37.85;23.77;;;4.70;99.90;;;;;;4617184;30;20066;-83
2021/12/06 06:48:04;;;;;;;47.47;26.17;;;4.70;99.90;;;;;;4613876;30;20049;-84
2021/12/06 06:50:30;;;;;;;50.17;28.57;;;4.70;99.90;;;;;;4628027;30;20038;-83
2021/12/06 06:52:55;;;;;;;50.90;24.38;;;4.70;99.90;;;;;;4657020;30;20291;-84
2021/12/06 06:55:23;;;;;;;45.65;26.05;;;4.70;99.90;;;;;;4637518;30;20082;-84
2021/12/06 06:57:50;;;;;;;;;;;4.70;99.90;;;;;;4641725;30;20073;-84
2021/12/06 07:00:37;;;;;;;45.67;26.38;;;4.70;99.90;;;;;;4654520;30;19938;-84
2021/12/06 07:03:05;;;;;;;47.05;25.70;;;4.70;99.90;;;;;;4652691;30;20082;-84
2021/12/06 07:05:31;;;;;;;48.28;25.92;;;4.80;99.90;;;;;;4639671;30;20071;-83
2021/12/06 07:07:57;;;;;;;60.65;26.33;;;4.80;99.90;;;;;;4639718;30;20328;-84
2021/12/06 07:10:24;;;;;;;43.77;23.80;;;4.80;99.90;;;;;;4636602;30;20043;-84
2021/12/06 07:12:54;;;;;;;49.47;23.88;;;4.80;99.90;;;;;;4642174;30;20051;-84
2021/12/06 07:15:23;;;;;;;44.17;22.75;;;4.80;99.90;;;;;;4640265;30;20093;-83
2021/12/06 07:17:51;;;;;;;43.55;23.35;;;4.80;99.90;;;;;;4655777;30;20101;-83
2021/12/06 07:20:18;;;;;;;44.20;23.00;;;4.90;99.90;;;;;;4627445;30;20058;-83
2021/12/06 07:22:44;;;;;;;39.67;22.00;;;4.90;99.90;;;;;;4642788;30;20031;-83
2021/12/06 07:25:12;;;;;;;39.05;20.90;;;5.00;99.90;;;;;;4652947;30;20163;-83
2021/12/06 07:27:39;;;;;;;37.85;21.92;;;5.00;99.90;;;;;;4654090;30;20045;-83
2021/12/06 07:30:06;;;;;;;35.75;20.33;;;5.00;99.90;;;;;;4656664;30;20046;-84
2021/12/06 07:32:32;;;;;;;37.15;19.83;;;5.00;99.90;;;;;;4643096;30;20038;-83
2021/12/06 07:34:57;;;;;;;39.08;19.55;;;5.00;99.90;;;;;;4629063;30;20056;-83
2021/12/06 07:37:23;;;;;;;32.67;18.20;;;5.00;99.90;;;;;;4638127;30;20035;-83
2021/12/06 07:39:49;;;;;;;35.75;17.75;;;5.10;99.90;;;;;;4627239;30;20394;-83
2021/12/06 07:42:18;;;;;;;39.03;19.50;;;5.10;99.90;;;;;;4628999;30;20231;-83
2021/12/06 07:44:44;;;;;;;35.65;18.23;;;5.20;99.90;;;;;;4653413;30;20042;-84
2021/12/06 07:47:11;;;;;;;30.30;18.33;;;5.20;99.90;;;;;;4659435;30;20066;-84
2021/12/06 07:49:38;;;;;;;26.98;17.02;;;5.20;99.90;;;;;;4652613;30;20031;-84
2021/12/06 07:52:05;;;;;;;37.58;16.23;;;5.20;99.90;;;;;;4640815;30;20327;-84
2021/12/06 07:54:32;;;;;;;31.95;17.13;;;5.30;99.90;;;;;;4626611;30;20047;-84
2021/12/06 07:56:58;;;;;;;34.03;16.60;;;5.30;99.90;;;;;;4641914;30;20032;-84
2021/12/06 07:59:24;;;;;;;29.60;16.27;;;5.40;99.90;;;;;;4642105;30;20070;-84
2021/12/06 08:01:50;;;;;;;30.38;16.10;;;5.40;99.90;;;;;;4640847;30;20294;-84
2021/12/06 08:04:16;;;;;;;30.95;14.50;;;5.50;99.90;;;;;;4614201;30;20039;-84
2021/12/06 08:06:42;;;;;;;29.13;16.10;;;5.50;99.90;;;;;;4666521;30;20049;-84
2021/12/06 08:09:08;;;;;;;32.47;15.32;;;5.60;99.90;;;;;;4642307;30;20039;-84
2021/12/06 08:11:34;;;;;;;29.65;16.00;;;5.60;99.90;;;;;;4625120;30;20033;-84
2021/12/06 08:14:01;;;;;;;32.53;15.70;;;5.70;99.90;;;;;;4656011;30;20093;-84
2021/12/06 08:16:34;;;;;;;30.50;16.15;;;5.70;99.90;;;;;;4637716;30;20301;-84
2021/12/06 08:19:00;;;;;;;31.45;14.45;;;5.70;99.90;;;;;;4652378;30;20098;-84
2021/12/06 08:21:28;;;;;;;28.48;14.82;;;5.70;99.70;;;;;;4652511;30;20050;-84
2021/12/06 08:23:55;;;;;;;32.30;16.13;;;5.80;99.90;;;;;;4634561;30;20039;-84
2021/12/06 08:26:24;;;;;;;32.47;16.60;;;5.90;99.90;;;;;;4653078;30;20154;-84
2021/12/06 08:28:51;;;;;;;28.38;15.00;;;6.00;99.90;;;;;;4653968;30;20086;-84
2021/12/06 08:31:22;;;;;;;29.43;15.60;;;6.00;99.90;;;;;;4640832;30;20134;-84
2021/12/06 08:33:52;;;;;;;29.58;15.57;;;6.00;99.70;;;;;;4628352;30;20259;-83
2021/12/06 08:36:18;;;;;;;31.98;15.70;;;6.10;99.60;;;;;;4641967;30;20046;-84
2021/12/06 08:38:44;;;;;;;28.70;13.95;;;6.10;99.40;;;;;;4651185;30;20046;-83
2021/12/06 08:41:15;;;;;;;33.77;14.67;;;6.20;99.10;;;;;;4635763;30;20103;-83
2021/12/06 08:43:42;;;;;;;29.42;15.75;;;6.10;98.70;;;;;;4655258;30;20315;-83
2021/12/06 08:46:16;;;;;;;28.38;14.90;;;6.10;99.60;;;;;;4654192;30;20059;-83
2021/12/06 08:48:42;;;;;;;28.13;14.77;;;6.10;98.90;;;;;;4656193;30;20043;-84
2021/12/06 08:51:16;;;;;;;34.88;15.02;;;6.20;99.00;;;;;;4626784;30;20386;-84
2021/12/06 08:53:43;;;;;;;26.05;14.43;;;6.30;99.00;;;;;;4640545;31;20366;-83
2021/12/06 08:56:09;;;;;;;33.42;16.60;;;6.30;98.10;;;;;;4641652;30;20264;-83
2021/12/06 08:58:35;;;;;;;29.05;14.95;;;6.30;98.30;;;;;;4657584;30;20039;-82
2021/12/06 09:01:03;;;;;;;24.10;15.15;;;6.30;98.40;;;;;;4654002;30;20288;-82
2021/12/06 09:03:30;;;;;;;29.92;14.30;;;6.30;97.80;;;;;;4643206;30;20408;-83
2021/12/06 09:05:56;;;;;;;;;;;6.30;98.00;;;;;;4657625;30;20035;-83
2021/12/06 09:08:24;;;;;;;31.55;16.20;;;6.30;97.50;;;;;;4671456;30;20005;-83
2021/12/06 09:10:52;;;;;;;35.53;16.73;;;6.20;98.10;;;;;;4630928;30;20046;-83
2021/12/06 09:13:23;;;;;;;32.90;17.35;;;6.30;98.40;;;;;;4656445;30;20035;-82
2021/12/06 09:15:51;;;;;;;30.95;15.80;;;6.40;98.30;;;;;;4670418;30;20054;-82
2021/12/06 09:18:18;;;;;;;27.80;15.20;;;6.50;98.20;;;;;;4670460;30;20034;-83
2021/12/06 09:20:47;;;;;;;25.90;15.13;;;6.50;97.40;;;;;;4656320;30;20062;-83
2021/12/06 09:23:13;;;;;;;27.10;13.88;;;6.60;97.70;;;;;;4656693;30;20031;-83
2021/12/06 09:25:40;;;;;;;29.67;15.63;;;6.70;97.20;;;;;;4656229;30;20082;-82
2021/12/06 09:28:06;;;;;;;29.95;15.40;;;6.80;96.90;;;;;;4656302;30;20081;-82
2021/12/06 09:30:33;;;;;;;26.23;16.05;;;6.90;96.60;;;;;;4667638;30;20032;-82
2021/12/06 09:33:03;;;;;;;28.15;16.33;;;6.90;96.90;;;;;;4629362;31;20114;-83
2021/12/06 09:35:30;;;;;;;26.00;15.95;;;6.90;96.60;;;;;;4641435;30;20039;-82
2021/12/06 09:37:58;;;;;;;27.87;16.10;;;6.90;96.40;;;;;;4642167;30;20392;-83
2021/12/06 09:40:27;;;;;;;30.65;16.35;;;6.80;96.10;;;;;;4655464;30;20148;-82
2021/12/06 09:42:54;;;;;;;33.85;16.67;;;6.80;96.60;;;;;;4642233;30;20322;-83
2021/12/06 09:45:26;;;;;;;28.33;16.83;;;6.80;96.50;;;;;;4653080;30;20343;-83
2021/12/06 09:47:53;;;;;;;28.25;16.35;;;6.90;96.90;;;;;;4654687;30;20055;-82
2021/12/06 09:50:27;;;;;;;39.22;17.95;;;7.00;96.40;;;;;;4638804;30;20039;-82
2021/12/06 09:52:56;;;;;;;28.70;18.42;;;7.00;96.20;;;;;;4650279;30;20331;-83
2021/12/06 09:55:23;;;;;;;31.80;16.88;;;7.00;96.30;;;;;;4657948;30;20327;-82
2021/12/06 09:57:49;;;;;;;32.67;18.98;;;7.00;96.40;;;;;;4644523;30;20038;-82
2021/12/06 10:00:23;;;;;;;31.63;18.43;;;7.00;96.70;;;;;;4641952;30;20065;-82
2021/12/06 10:02:49;;;;;;;37.50;19.17;;;7.10;96.80;;;;;;4658697;30;20035;-83
2021/12/06 10:05:15;;;;;;;35.38;18.75;;;7.20;96.30;;;;;;4644661;30;20039;-82
2021/12/06 10:07:41;;;;;;;33.37;17.17;;;7.20;96.40;;;;;;4650331;30;20043;-82
2021/12/06 10:10:11;;;;;;;29.95;18.42;;;7.20;96.30;;;;;;4619766;31;20495;-82
2021/12/06 10:12:37;;;;;;;31.02;19.20;;;7.30;96.30;;;;;;4653750;30;20185;-82
2021/12/06 10:15:05;;;;;;;37.70;18.98;;;7.40;96.30;;;;;;4671268;30;20035;-82
2021/12/06 10:17:32;;;;;;;31.83;18.55;;;7.60;96.00;;;;;;4638870;30;20061;-82
2021/12/06 10:19:59;;;;;;;;;;;7.60;95.20;;;;;;4645162;30;20066;-82
2021/12/06 10:22:27;;;;;;;26.67;16.27;;;7.50;94.80;;;;;;4668326;30;19917;-82
2021/12/06 10:24:55;;;;;;;27.67;17.83;;;7.50;95.20;;;;;;4643663;30;20118;-82
2021/12/06 10:27:21;;;;;;;33.15;18.40;;;7.50;94.90;;;;;;4660164;30;20098;-82
2021/12/06 10:29:53;;;;;;;36.08;17.77;;;7.50;95.70;;;;;;4658676;30;20031;-82
2021/12/06 10:32:26;;;;;;;29.05;17.85;;;7.40;95.20;;;;;;4658385;30;20110;-82
2021/12/06 10:34:56;;;;;;;32.90;18.23;;;7.30;95.00;;;;;;4658580;30;20086;-82
2021/12/06 10:37:46;;;;;;;29.52;17.85;;;7.20;95.70;;;;;;4658678;30;20275;-82
2021/12/06 10:40:21;;;;;;;33.47;17.90;;;7.10;95.70;;;;;;4672083;30;20258;-82
2021/12/06 10:42:49;;;;;;;34.75;18.48;;;7.00;96.20;;;;;;4657486;30;20271;-82
2021/12/06 10:45:21;;;;;;;32.90;19.00;;;7.00;96.20;;;;;;4658155;30;20122;-82
2021/12/06 10:48:20;;;;;;;31.63;17.50;;;7.00;96.10;;;;;;4657742;30;20054;-81
2021/12/06 10:50:51;;;;;;;37.38;17.70;;;7.10;96.30;;;;;;4593034;31;20052;-82
2021/12/06 10:53:23;;;;;;;33.00;17.63;;;7.10;96.10;;;;;;4579691;31;20323;-82
2021/12/06 10:55:52;;;;;;;37.20;16.85;;;6.90;96.10;;;;;;4592541;31;20362;-82
2021/12/06 10:58:21;;;;;;;35.47;17.30;;;6.80;96.00;;;;;;4606154;31;20463;-82
2021/12/06 11:00:57;;;;;;;30.23;15.98;;;6.80;96.30;;;;;;4606449;31;20072;-82
2021/12/06 11:03:35;;;;;;;28.27;16.13;;;6.80;96.50;;;;;;4579140;31;20047;-82
2021/12/06 11:06:09;;;;;;;32.13;16.73;;;6.80;96.20;;;;;;4605809;31;20059;-82
2021/12/06 11:08:37;;;;;;;26.20;15.02;;;6.80;96.50;;;;;;4606302;31;20040;-82
2021/12/06 11:11:11;;;;;;;30.30;14.73;;;6.80;96.00;;;;;;4606353;31;20370;-82
2021/12/06 11:13:46;;;;;;;27.80;14.80;;;6.70;96.20;;;;;;4592448;31;20059;-83
2021/12/06 11:16:21;;;;;;;24.25;15.43;;;6.70;96.10;;;;;;4592573;31;20084;-82
2021/12/06 11:18:57;;;;;;;39.10;18.23;;;6.80;96.40;;;;;;4606865;31;20056;-82
2021/12/06 11:21:25;;;;;;;25.57;14.03;;;6.80;96.30;;;;;;4592859;31;20052;-82
2021/12/06 11:24:18;;;;;;;23.95;12.88;;;6.80;96.10;;;;;;4578858;31;20055;-82
2021/12/06 11:26:57;;;;;;;24.63;13.05;;;6.90;95.70;;;;;;4616814;30;20062;-82
2021/12/06 11:29:28;;;;;;;28.05;14.18;;;6.80;95.50;;;;;;4665969;30;20109;-82
2021/12/06 11:31:56;;;;;;;25.83;13.45;;;6.70;95.60;;;;;;4640832;30;20047;-82
2021/12/06 11:34:26;;;;;;;32.22;13.90;;;6.70;95.50;;;;;;4651633;30;20031;-82
2021/12/06 11:36:52;;;;;;;26.08;13.27;;;6.60;95.50;;;;;;4654948;30;20043;-82
2021/12/06 11:39:21;;;;;;;30.27;13.07;;;6.60;95.90;;;;;;4643536;30;20058;-82
2021/12/06 11:41:55;;;;;;;20.75;13.57;;;6.70;95.80;;;;;;4655272;30;20043;-82
2021/12/06 11:44:23;;;;;;;26.63;13.30;;;6.60;95.80;;;;;;4656946;30;20044;-82
2021/12/06 11:47:11;;;;;;;29.40;13.45;;;6.60;96.10;;;;;;4656531;30;20067;-82
2021/12/06 11:49:45;;;;;;;26.58;14.40;;;6.70;96.10;;;;;;4638237;30;20178;-82
2021/12/06 11:52:18;;;;;;;25.58;13.60;;;6.70;96.30;;;;;;4655103;30;20035;-82
2021/12/06 11:54:49;;;;;;;25.70;13.23;;;6.60;96.10;;;;;;4670589;30;20031;-83
2021/12/06 11:57:19;;;;;;;32.70;13.98;;;6.70;96.20;;;;;;4668281;30;20105;-83
2021/12/06 11:59:50;;;;;;;29.02;13.52;;;6.70;96.20;;;;;;4638253;30;20035;-83
2021/12/06 12:02:29;;;;;;;30.95;14.02;;;6.70;96.20;;;;;;4643233;30;20054;-82
2021/12/06 12:05:16;;;;;;;31.70;15.63;;;6.70;95.90;;;;;;4667195;30;20062;-82
2021/12/06 12:07:55;;;;;;;31.20;14.52;;;6.80;96.20;;;;;;4656931;30;20039;-83
2021/12/06 12:10:37;;;;;;;30.20;13.90;;;6.80;96.20;;;;;;4643033;30;20346;-83
2021/12/06 12:13:05;;;;;;;41.00;14.63;;;6.90;95.90;;;;;;4656825;30;20042;-83
2021/12/06 12:15:31;;;;;;;29.58;16.42;;;6.90;95.80;;;;;;4654175;30;20224;-83
2021/12/06 12:17:57;;;;;;;31.63;16.08;;;7.00;96.00;;;;;;4665102;30;20046;-82
2021/12/06 12:20:24;;;;;;;31.00;15.80;;;6.90;95.80;;;;;;4654030;30;20238;-83
2021/12/06 12:22:57;;;;;;;27.50;15.00;;;6.90;95.70;;;;;;4637115;30;20041;-83
2021/12/06 12:25:31;;;;;;;29.73;15.48;;;6.90;95.60;;;;;;4656676;30;20046;-83
2021/12/06 12:30:31;;;;;;;32.45;17.30;;;7.00;95.60;;;;;;4656571;30;20234;-83
2021/12/06 12:32:57;;;;;;;29.33;15.63;;;7.10;95.60;;;;;;4656571;30;20060;-83
2021/12/06 12:35:24;;;;;;;33.95;15.68;;;7.10;95.40;;;;;;4656511;30;20034;-83
2021/12/06 12:37:51;;;;;;;27.73;15.05;;;7.10;95.30;;;;;;4656239;30;20041;-83
2021/12/06 12:40:18;;;;;;;;;;;7.00;95.40;;;;;;4639766;30;20058;-83
2021/12/06 12:42:58;;;;;;;32.30;15.20;;;7.10;95.30;;;;;;4656313;30;20208;-83
2021/12/06 12:45:31;;;;;;;30.85;15.18;;;7.10;95.70;;;;;;4642164;30;20110;-83
2021/12/06 12:47:56;;;;;;;31.75;13.18;;;7.20;95.30;;;;;;4656147;30;20047;-83
2021/12/06 12:50:24;;;;;;;21.92;11.93;;;7.20;94.70;;;;;;4614684;30;20046;-82
2021/12/06 12:52:52;;;;;;;26.73;14.10;;;7.30;94.10;;;;;;4628557;30;20042;-82
2021/12/06 12:55:22;;;;;;;24.73;12.85;;;7.30;94.00;;;;;;4656007;30;20043;-82
2021/12/06 12:57:49;;;;;;;22.98;12.18;;;7.30;93.40;;;;;;4656389;30;20057;-82
2021/12/06 13:00:24;;;;;;;26.13;12.65;;;7.30;93.20;;;;;;4655856;30;20059;-81
2021/12/06 13:02:50;;;;;;;24.48;11.68;;;7.30;93.20;;;;;;4656545;30;20057;-82
2021/12/06 13:05:34;;;;;;;24.87;12.87;;;7.20;92.90;;;;;;4656247;30;20039;-82
2021/12/06 13:08:03;;;;;;;21.50;12.45;;;7.20;93.00;;;;;;4639285;30;20035;-82
2021/12/06 13:10:34;;;;;;;24.70;11.52;;;7.10;93.30;;;;;;4641755;30;20314;-82
2021/12/06 13:13:03;;;;;;;27.33;14.10;;;7.10;92.80;;;;;;4670388;30;20047;-82
2021/12/06 13:15:51;;;;;;;27.58;13.43;;;7.10;93.20;;;;;;4656010;30;20058;-83
2021/12/06 13:18:33;;;;;;;25.27;13.07;;;7.10;93.30;;;;;;4616033;30;20365;-83
2021/12/06 13:21:30;;;;;;;29.70;13.40;;;7.00;93.20;;;;;;4626426;30;20506;-83
2021/12/06 13:24:16;;;;;;;26.27;13.63;;;7.00;93.20;;;;;;4636175;30;20035;-83
2021/12/06 13:26:45;;;;;;;30.58;13.45;;;6.90;93.20;;;;;;4626792;30;20041;-83
2021/12/06 13:29:19;;;;;;;27.23;13.85;;;6.80;93.40;;;;;;4647565;30;20035;-82
2021/12/06 13:31:46;;;;;;;26.73;13.05;;;6.80;93.40;;;;;;4636827;31;20086;-82
2021/12/06 13:34:31;;;;;;;23.83;12.90;;;6.80;93.60;;;;;;4616733;30;20126;-82
2021/12/06 13:37:00;;;;;;;27.80;13.57;;;6.80;93.40;;;;;;4657952;30;20089;-82
2021/12/06 13:39:45;;;;;;;28.02;12.85;;;6.80;93.60;;;;;;4639112;30;20064;-82
2021/12/06 13:42:14;;;;;;;27.02;13.40;;;6.80;93.30;;;;;;4639876;30;20043;-82
2021/12/06 13:44:56;;;;;;;22.42;12.60;;;6.70;93.70;;;;;;4644513;30;20054;-82
2021/12/06 13:47:27;;;;;;;25.92;13.35;;;6.60;93.80;;;;;;4632333;31;20106;-83
2021/12/06 13:50:08;;;;;;;25.10;13.15;;;6.60;94.00;;;;;;4645144;30;20043;-83
2021/12/06 13:52:41;;;;;;;23.00;13.43;;;6.60;93.90;;;;;;4660097;30;20035;-82
2021/12/06 13:55:21;;;;;;;23.13;14.20;;;6.60;93.90;;;;;;4645038;30;20174;-81
2021/12/06 13:57:50;;;;;;;24.58;13.45;;;6.50;93.80;;;;;;4650376;30;20401;-82
2021/12/06 14:00:24;;;;;;;24.35;12.82;;;6.60;93.80;;;;;;4659147;30;20043;-82
2021/12/06 14:03:03;;;;;;;24.65;12.18;;;6.60;93.40;;;;;;4659085;30;20157;-82
2021/12/06 14:05:30;;;;;;;26.85;12.23;;;6.60;93.60;;;;;;4658848;30;20038;-82
2021/12/06 14:07:56;;;;;;;18.08;12.02;;;6.50;93.20;;;;;;4644751;30;20272;-82
2021/12/06 14:10:22;;;;;;;24.25;12.80;;;6.50;93.10;;;;;;4672994;30;20069;-82
2021/12/06 14:12:49;;;;;;;24.90;11.98;;;6.50;93.00;;;;;;4668720;30;20038;-81
2021/12/06 14:18:04;;;;;;;23.17;12.68;;;6.50;93.00;;;;;;4637330;31;20043;-82
2021/12/06 14:20:30;;;;;;;25.73;12.60;;;6.60;93.20;;;;;;4640552;31;20050;-82
2021/12/06 14:22:56;;;;;;;21.33;11.30;;;6.60;92.90;;;;;;4598990;31;20061;-82
2021/12/06 14:25:22;;;;;;;25.48;12.90;;;6.50;92.80;;;;;;4619238;31;20323;-82
2021/12/06 14:27:49;;;;;;;20.80;12.70;;;6.50;92.90;;;;;;4611877;31;20052;-81
2021/12/06 14:30:22;;;;;;;28.75;13.27;;;6.60;92.80;;;;;;4610860;31;20059;-82
2021/12/06 14:32:59;;;;;;;24.23;12.20;;;6.50;92.60;;;;;;4610301;31;20126;-82
2021/12/06 14:35:27;;;;;;;18.88;11.70;;;6.50;92.40;;;;;;4605572;31;20058;-82
2021/12/06 14:37:54;;;;;;;21.42;12.02;;;6.50;92.60;;;;;;4598307;31;20114;-82
2021/12/06 14:40:21;;;;;;;20.20;11.50;;;6.50;92.40;;;;;;4620366;31;20243;-82
2021/12/06 14:42:48;;;;;;;24.67;12.40;;;6.50;92.20;;;;;;4608377;31;20051;-82
2021/12/06 14:45:17;;;;;;;20.58;11.85;;;6.40;92.20;;;;;;4596601;31;20059;-82
2021/12/06 14:47:48;;;;;;;19.27;11.85;;;6.40;92.00;;;;;;4607020;31;20272;-82
2021/12/06 14:50:48;;;;;;;25.83;12.40;;;6.50;91.90;;;;;;4627254;31;20054;-82
2021/12/06 14:53:18;;;;;;;22.70;11.63;;;6.40;91.70;;;;;;4612601;31;20039;-82
2021/12/06 14:55:54;;;;;;;22.23;12.98;;;6.40;91.70;;;;;;4626727;30;20054;-82
2021/12/06 14:58:27;;;;;;;22.80;12.13;;;6.40;91.60;;;;;;4658362;30;20043;-82
2021/12/06 15:00:58;;;;;;;23.67;12.73;;;6.40;91.80;;;;;;4673017;30;20066;-82
2021/12/06 15:03:30;;;;;;;25.10;13.00;;;6.40;91.90;;;;;;4658296;30;20039;-82
2021/12/06 15:05:57;;;;;;;22.55;13.15;;;6.40;91.90;;;;;;4654299;30;20039;-82
2021/12/06 15:08:54;;;;;;;30.08;13.43;;;6.30;92.00;;;;;;4669795;30;20071;-82
2021/12/06 15:11:29;;;;;;;24.42;12.45;;;6.30;91.90;;;;;;4607062;31;20059;-82
2021/12/06 15:13:58;;;;;;;23.58;13.27;;;6.20;92.00;;;;;;4595264;31;20063;-82
2021/12/06 15:16:25;;;;;;;22.52;13.65;;;6.20;92.30;;;;;;4593142;31;20052;-82
2021/12/06 15:18:52;;;;;;;24.02;13.45;;;6.20;92.30;;;;;;4585837;31;20048;-82
2021/12/06 15:21:24;;;;;;;26.70;14.35;;;6.20;92.60;;;;;;4599000;31;20044;-82
2021/12/06 15:23:52;;;;;;;23.17;13.35;;;6.20;92.70;;;;;;4589642;31;20036;-82
2021/12/06 15:26:30;;;;;;;25.75;15.27;;;6.10;92.80;;;;;;4591970;31;20051;-81
2021/12/06 15:29:01;;;;;;;25.45;14.90;;;6.10;93.10;;;;;;4599554;31;20336;-82
2021/12/06 15:31:27;;;;;;;26.73;15.57;;;6.10;93.30;;;;;;4606885;31;20048;-82
2021/12/06 15:33:56;;;;;;;29.00;15.88;;;6.10;93.20;;;;;;4577972;31;20044;-82
2021/12/06 15:36:24;;;;;;;30.67;15.18;;;6.00;93.40;;;;;;4601307;31;20048;-82
2021/12/06 15:39:06;;;;;;;47.83;18.92;;;6.10;93.60;;;;;;4599071;31;20327;-82
2021/12/06 15:41:57;;;;;;;34.85;16.92;;;6.10;93.90;;;;;;4603534;31;20180;-82
2021/12/06 15:44:39;;;;;;;34.78;17.65;;;6.10;94.00;;;;;;4604633;31;20051;-82
2021/12/06 15:47:15;;;;;;;31.45;18.42;;;6.20;94.10;;;;;;4595736;30;20093;-82
2021/12/06 15:49:43;;;;;;;39.75;18.00;;;6.20;94.00;;;;;;4644678;30;20027;-82
2021/12/06 15:52:15;;;;;;;34.97;18.05;;;6.20;94.10;;;;;;4658533;30;20066;-82
2021/12/06 15:54:45;;;;;;;35.10;17.85;;;6.10;94.10;;;;;;4658195;30;20107;-82
2021/12/06 15:57:15;;;;;;;39.53;17.88;;;6.20;94.20;;;;;;4656590;30;20110;-82
2021/12/06 15:59:45;;;;;;;32.20;17.67;;;6.10;94.20;;;;;;4672302;30;20094;-82
2021/12/06 16:02:15;;;;;;;32.97;18.35;;;6.10;94.50;;;;;;4643144;30;20157;-82
2021/12/06 16:04:43;;;;;;;38.97;17.90;;;6.00;94.50;;;;;;4657168;30;20057;-82
2021/12/06 16:07:09;;;;;;;31.83;18.13;;;6.00;94.40;;;;;;4656964;30;20109;-82
2021/12/06 16:09:37;;;;;;;33.88;18.23;;;6.00;94.40;;;;;;4641908;30;20227;-82
2021/12/06 16:12:09;;;;;;;27.98;17.20;;;5.90;94.10;;;;;;4656712;30;20257;-82
2021/12/06 16:14:37;;;;;;;33.08;17.33;;;5.80;94.20;;;;;;4656667;30;20102;-82
2021/12/06 16:17:09;;;;;;;28.85;15.35;;;5.70;94.30;;;;;;4671032;30;20043;-82
2021/12/06 16:19:36;;;;;;;28.05;15.45;;;5.60;94.00;;;;;;4655735;30;20037;-82
2021/12/06 16:22:02;;;;;;;28.17;14.60;;;5.50;94.20;;;;;;4656209;30;20382;-82
2021/12/06 16:24:28;;;;;;;29.03;14.97;;;5.50;94.10;;;;;;4656590;30;20327;-82
2021/12/06 16:26:56;;;;;;;26.30;15.18;;;5.40;94.00;;;;;;4670650;30;20331;-83
2021/12/06 16:29:28;;;;;;;30.25;15.15;;;5.30;94.00;;;;;;4628239;30;20231;-83
2021/12/06 16:32:03;;;;;;;25.95;14.70;;;5.20;94.10;;;;;;4642601;30;20042;-83
2021/12/06 16:34:37;;;;;;;27.52;14.63;;;5.20;94.20;;;;;;4656427;30;20196;-83
2021/12/06 16:37:15;;;;;;;27.25;16.10;;;5.10;94.20;;;;;;4656307;30;20046;-83
2021/12/06 16:39:50;;;;;;;26.25;15.00;;;5.10;94.60;;;;;;4655967;30;20039;-83
2021/12/06 16:42:24;;;;;;;30.77;14.90;;;5.10;94.60;;;;;;4657903;30;20031;-83